Time;durP1;ratioP1;P1;durP2;ratioP2;P2;SDS_P1;SDS_P2;PMS_P1;PMS_P2;Temp;Humidity;BMP_temperature;BMP_pressure;BME280_temperature;BME280_humidity;BME280_pressure;Samples;Min_cycle;Max_cycle;Signal;HPM_P1;HPM_P2
2024/03/21 00:01:44;;;;;;;11.87;10.63;;;15.00;94.90;;;;;;5033295;28;20460;-77
2024/03/21 00:04:18;;;;;;;12.63;9.57;;;15.00;94.90;;;;;;5034573;28;20953;-76
2024/03/21 00:06:47;;;;;;;13.10;11.43;;;15.00;94.90;;;;;;5033904;28;20518;-77
2024/03/21 00:09:13;;;;;;;11.37;9.50;;;15.00;94.80;;;;;;5034305;28;20472;-77
2024/03/21 00:11:40;;;;;;;13.20;11.10;;;15.00;94.80;;;;;;5031190;28;20492;-77
2024/03/21 00:14:06;;;;;;;12.93;11.60;;;15.00;94.80;;;;;;5022481;28;20475;-77
2024/03/21 00:16:38;;;;;;;12.23;11.03;;;15.00;94.80;;;;;;5032642;28;20470;-76
2024/03/21 00:19:05;;;;;;;13.17;11.33;;;15.00;94.80;;;;;;5033595;28;20957;-77
2024/03/21 00:21:32;;;;;;;13.27;11.87;;;15.00;94.90;;;;;;5033160;28;20460;-77
2024/03/21 00:24:03;;;;;;;12.00;10.00;;;15.00;94.90;;;;;;5024272;28;20503;-76
2024/03/21 00:26:30;;;;;;;13.83;10.80;;;15.00;94.90;;;;;;5024857;28;20472;-77
2024/03/21 00:28:57;;;;;;;11.63;10.00;;;15.00;94.90;;;;;;5013714;28;20480;-77
2024/03/21 00:31:29;;;;;;;13.60;11.40;;;15.00;94.90;;;;;;5014006;28;20531;-76
2024/03/21 00:33:55;;;;;;;12.40;11.20;;;15.00;94.90;;;;;;5012832;28;20492;-77
2024/03/21 00:36:22;;;;;;;14.80;10.90;;;15.00;94.90;;;;;;5013826;28;20472;-77
2024/03/21 00:38:51;;;;;;;12.10;10.57;;;15.00;94.90;;;;;;5012773;28;20481;-77
2024/03/21 00:41:22;;;;;;;11.97;10.57;;;15.00;95.00;;;;;;5013751;28;20974;-76
2024/03/21 00:43:48;;;;;;;12.53;10.93;;;14.90;95.00;;;;;;5012951;28;20473;-77
2024/03/21 00:46:15;;;;;;;15.53;11.60;;;14.90;95.10;;;;;;5013734;28;20773;-76
2024/03/21 00:48:41;;;;;;;12.40;11.10;;;14.90;95.20;;;;;;5011884;28;20488;-77
2024/03/21 00:51:09;;;;;;;15.53;13.10;;;14.90;95.20;;;;;;5004085;28;20484;-76
2024/03/21 00:53:37;;;;;;;13.80;10.97;;;14.90;95.30;;;;;;5011903;28;20477;-77
2024/03/21 00:56:06;;;;;;;11.07;9.97;;;14.90;95.50;;;;;;5013623;28;20492;-77
2024/03/21 00:58:40;;;;;;;12.97;11.13;;;14.90;95.70;;;;;;5013828;28;20493;-77
2024/03/21 01:01:16;;;;;;;12.17;10.90;;;14.80;95.80;;;;;;5012624;28;20819;-77
2024/03/21 01:03:48;;;;;;;11.43;10.33;;;14.90;96.30;;;;;;5019220;28;20482;-77
2024/03/21 01:06:15;;;;;;;13.23;11.90;;;14.80;96.00;;;;;;5022996;28;20468;-77
2024/03/21 01:08:44;;;;;;;12.60;11.27;;;14.80;96.30;;;;;;5023042;28;20575;-76
2024/03/21 01:11:11;;;;;;;12.10;10.50;;;14.80;96.40;;;;;;5032590;28;20470;-77
2024/03/21 01:13:39;;;;;;;12.90;11.00;;;14.80;96.60;;;;;;5033086;28;20476;-77
2024/03/21 01:16:08;;;;;;;12.00;10.70;;;14.80;96.90;;;;;;5021041;28;20530;-77
2024/03/21 01:18:42;;;;;;;13.33;11.93;;;14.80;97.00;;;;;;5032391;28;20542;-76
2024/03/21 01:21:09;;;;;;;12.77;11.47;;;14.70;97.20;;;;;;5022163;28;20783;-77
2024/03/21 01:23:36;;;;;;;13.20;11.70;;;14.80;97.60;;;;;;5031737;28;20477;-77
2024/03/21 01:26:07;;;;;;;14.13;11.30;;;14.70;97.90;;;;;;5016027;28;20476;-77
2024/03/21 01:28:33;;;;;;;13.23;10.10;;;14.70;98.10;;;;;;5013407;28;20483;-76
2024/03/21 01:31:14;;;;;;;13.80;11.80;;;14.70;98.40;;;;;;5013271;28;20473;-76
2024/03/21 01:33:42;;;;;;;12.87;11.23;;;14.70;98.70;;;;;;5013402;28;20480;-76
2024/03/21 01:36:10;;;;;;;15.57;11.90;;;14.60;98.90;;;;;;5002157;28;20544;-77
2024/03/21 01:38:39;;;;;;;15.40;11.20;;;14.60;99.10;;;;;;5013300;28;20465;-77
2024/03/21 01:41:06;;;;;;;13.07;11.77;;;14.60;99.40;;;;;;4992429;28;20491;-77
2024/03/21 01:43:38;;;;;;;12.77;11.43;;;14.60;99.80;;;;;;5003175;28;20577;-77
2024/03/21 01:46:17;;;;;;;12.23;11.00;;;14.60;99.90;;;;;;5010988;28;20548;-77
2024/03/21 01:48:47;;;;;;;12.10;10.83;;;14.50;99.90;;;;;;5012985;28;20469;-77
2024/03/21 01:51:18;;;;;;;13.30;11.90;;;14.50;99.90;;;;;;5012073;28;20837;-77
2024/03/21 01:53:48;;;;;;;12.77;11.53;;;14.50;99.90;;;;;;5002877;28;20552;-78
2024/03/21 01:56:15;;;;;;;13.40;12.10;;;14.50;99.90;;;;;;5012510;28;20469;-77
2024/03/21 01:58:44;;;;;;;15.50;12.60;;;14.50;99.90;;;;;;5012946;28;20473;-77
2024/03/21 02:01:23;;;;;;;13.57;12.23;;;14.50;99.90;;;;;;5012104;28;20473;-77
2024/03/21 02:03:59;;;;;;;15.67;12.77;;;14.50;99.90;;;;;;5021324;28;20467;-77
2024/03/21 02:06:27;;;;;;;15.53;13.57;;;14.50;99.90;;;;;;5036227;28;20475;-77
2024/03/21 02:08:58;;;;;;;14.97;13.47;;;14.60;99.90;;;;;;5036639;28;20464;-77
2024/03/21 02:11:24;;;;;;;16.53;12.67;;;14.60;99.90;;;;;;5024978;28;20539;-77
2024/03/21 02:13:55;;;;;;;14.37;12.87;;;14.60;99.90;;;;;;5036086;28;20475;-77
2024/03/21 02:16:24;;;;;;;15.00;13.40;;;14.60;99.90;;;;;;5036074;28;20478;-77
2024/03/21 02:18:56;;;;;;;14.43;12.93;;;14.60;99.90;;;;;;5018320;28;20597;-77
2024/03/21 02:24:09;;;;;;;17.20;12.53;;;14.60;99.90;;;;;;5035841;28;20926;-77
2024/03/21 02:26:36;;;;;;;14.23;12.73;;;14.60;99.90;;;;;;5035358;28;20582;-77
2024/03/21 02:29:05;;;;;;;15.37;13.73;;;14.60;99.90;;;;;;5036067;28;21051;-77
2024/03/21 02:31:38;;;;;;;15.53;13.87;;;14.60;99.90;;;;;;5034356;28;20468;-77
2024/03/21 02:34:04;;;;;;;16.30;14.30;;;14.60;99.90;;;;;;5026047;28;20480;-77
2024/03/21 02:36:31;;;;;;;17.97;13.70;;;14.60;99.90;;;;;;5034591;28;20613;-77
2024/03/21 02:39:00;;;;;;;18.17;16.23;;;14.60;99.90;;;;;;5035962;28;20984;-77
2024/03/21 02:41:30;;;;;;;17.47;14.17;;;14.60;99.90;;;;;;5034614;28;20563;-77
2024/03/21 02:43:57;;;;;;;15.80;14.23;;;14.50;99.90;;;;;;5024744;28;21005;-77
2024/03/21 02:46:28;;;;;;;14.13;12.73;;;14.50;99.90;;;;;;5034867;28;20539;-77
2024/03/21 02:48:57;;;;;;;16.40;14.60;;;14.60;99.90;;;;;;5033141;28;20555;-77
2024/03/21 02:51:24;;;;;;;17.33;15.50;;;14.50;99.90;;;;;;5034966;28;20472;-77
2024/03/21 02:53:50;;;;;;;15.27;13.63;;;14.50;99.90;;;;;;5035068;28;20655;-77
2024/03/21 02:56:19;;;;;;;17.13;15.20;;;14.50;99.90;;;;;;5035691;28;20475;-78
2024/03/21 02:58:47;;;;;;;17.30;15.40;;;14.50;99.90;;;;;;5034957;28;20468;-77
2024/03/21 03:01:14;;;;;;;16.03;14.53;;;14.50;99.90;;;;;;5034528;28;20531;-77
2024/03/21 03:03:40;;;;;;;16.53;14.93;;;14.50;99.90;;;;;;5034839;28;20472;-77
2024/03/21 03:06:22;;;;;;;16.57;14.80;;;14.50;99.90;;;;;;5034822;28;20770;-77
2024/03/21 03:08:48;;;;;;;18.90;15.53;;;14.50;99.90;;;;;;5034766;28;20476;-77
2024/03/21 03:11:15;;;;;;;17.60;13.70;;;14.40;99.90;;;;;;5034957;28;20494;-77
2024/03/21 03:13:42;;;;;;;17.87;16.07;;;14.40;99.90;;;;;;5033945;28;20479;-77
2024/03/21 03:16:11;;;;;;;16.70;14.97;;;14.40;99.90;;;;;;5034465;28;20462;-77
2024/03/21 03:18:37;;;;;;;17.40;15.00;;;14.40;99.90;;;;;;5034610;28;20479;-77
2024/03/21 03:21:08;;;;;;;15.73;14.03;;;14.40;99.90;;;;;;5034622;28;20468;-76
2024/03/21 03:23:37;;;;;;;19.57;15.80;;;14.40;99.90;;;;;;5035109;28;20534;-77
2024/03/21 03:26:05;;;;;;;17.50;14.77;;;14.40;99.90;;;;;;5034939;28;20452;-77
2024/03/21 03:28:30;;;;;;;22.07;17.13;;;14.30;99.90;;;;;;5023923;28;20468;-77
2024/03/21 03:30:57;;;;;;;18.07;15.70;;;14.30;99.90;;;;;;5026071;28;20954;-77
2024/03/21 03:36:10;;;;;;;17.03;13.53;;;14.30;99.90;;;;;;5034662;28;20478;-77
2024/03/21 03:38:37;;;;;;;16.33;14.23;;;14.30;99.90;;;;;;5034926;28;20472;-78
2024/03/21 03:41:17;;;;;;;20.20;17.23;;;14.30;99.90;;;;;;5025823;28;20465;-77
2024/03/21 03:43:44;;;;;;;18.67;16.20;;;14.30;99.90;;;;;;5034662;28;20479;-77
2024/03/21 03:46:14;;;;;;;16.93;15.00;;;14.30;99.90;;;;;;5034071;28;20448;-77
2024/03/21 03:48:43;;;;;;;22.47;16.83;;;14.20;99.90;;;;;;5034879;28;20487;-77
2024/03/21 03:51:09;;;;;;;20.83;15.47;;;14.20;99.90;;;;;;5023343;28;20908;-77
2024/03/21 03:53:39;;;;;;;17.40;14.90;;;14.20;99.90;;;;;;5034360;28;20506;-77
2024/03/21 03:56:05;;;;;;;18.50;16.50;;;14.20;99.90;;;;;;5032903;28;20507;-77
2024/03/21 03:58:34;;;;;;;19.60;16.07;;;14.20;99.90;;;;;;5024553;28;20503;-77
2024/03/21 04:01:03;;;;;;;21.10;17.87;;;14.20;99.90;;;;;;5033043;28;20473;-77
2024/03/21 04:03:31;;;;;;;18.20;16.30;;;14.20;99.90;;;;;;5033930;28;20873;-77
2024/03/21 04:06:00;;;;;;;18.60;15.37;;;14.20;99.90;;;;;;5033566;28;20492;-77
2024/03/21 04:08:27;;;;;;;19.97;17.87;;;14.20;99.90;;;;;;5034393;28;20809;-77
2024/03/21 04:10:59;;;;;;;24.93;16.70;;;14.20;99.90;;;;;;5034512;28;20871;-77
2024/03/21 04:13:28;;;;;;;19.60;16.30;;;14.10;99.90;;;;;;5022646;28;21033;-77
2024/03/21 04:15:55;;;;;;;19.57;16.13;;;14.10;99.90;;;;;;5033298;28;20949;-77
2024/03/21 04:18:25;;;;;;;20.60;17.03;;;14.20;99.90;;;;;;5033101;28;20460;-77
2024/03/21 04:20:56;;;;;;;20.23;17.73;;;14.10;99.90;;;;;;5034048;28;20786;-77
2024/03/21 04:23:25;;;;;;;18.17;15.83;;;14.10;99.90;;;;;;5033369;28;20860;-77
2024/03/21 04:25:51;;;;;;;18.67;16.60;;;14.10;99.90;;;;;;5034197;28;20551;-77
2024/03/21 04:28:18;;;;;;;19.48;14.60;;;14.00;99.90;;;;;;5032147;28;20459;-77
2024/03/21 04:30:48;;;;;;;17.73;15.83;;;14.00;99.90;;;;;;5034163;28;20226;-77
2024/03/21 04:33:15;;;;;;;20.53;16.17;;;14.00;99.90;;;;;;5032812;28;20495;-77
2024/03/21 04:35:41;;;;;;;16.20;14.47;;;14.00;99.90;;;;;;5033459;28;20500;-77
2024/03/21 04:38:12;;;;;;;19.90;16.57;;;14.00;99.90;;;;;;5033547;28;20978;-77
2024/03/21 04:40:42;;;;;;;17.40;15.33;;;14.00;99.90;;;;;;5032517;28;20503;-77
2024/03/21 04:43:09;;;;;;;17.67;15.77;;;14.00;99.90;;;;;;5032940;28;20551;-77
2024/03/21 04:45:37;;;;;;;20.47;17.10;;;14.00;99.90;;;;;;5032304;28;20929;-77
2024/03/21 04:48:11;;;;;;;22.88;17.83;;;14.00;99.90;;;;;;5033369;28;20861;-77
2024/03/21 04:50:37;;;;;;;17.03;15.23;;;14.00;99.90;;;;;;5031415;28;20229;-77
2024/03/21 04:53:05;;;;;;;17.93;15.87;;;14.00;99.90;;;;;;5032875;28;21005;-77
2024/03/21 04:55:30;;;;;;;22.17;17.80;;;14.00;99.90;;;;;;5033354;28;20969;-77
2024/03/21 04:57:59;;;;;;;18.97;16.97;;;13.90;99.90;;;;;;5033695;28;20467;-77
2024/03/21 05:00:26;;;;;;;20.00;17.73;;;13.90;99.90;;;;;;5032757;28;20480;-77
2024/03/21 05:02:56;;;;;;;18.10;16.10;;;13.90;99.90;;;;;;5022506;28;20472;-77
2024/03/21 05:05:22;;;;;;;19.50;15.90;;;13.90;99.90;;;;;;5027984;28;20893;-77
2024/03/21 05:07:49;;;;;;;20.13;16.63;;;13.90;99.90;;;;;;5033146;28;20547;-77
2024/03/21 05:10:22;;;;;;;20.87;17.47;;;13.90;99.90;;;;;;5032618;28;20541;-77
2024/03/21 05:12:52;;;;;;;20.25;16.88;;;13.90;99.90;;;;;;5031734;28;20468;-77
2024/03/21 05:15:20;;;;;;;19.20;16.63;;;13.90;99.90;;;;;;5033133;28;20256;-78
2024/03/21 05:17:54;;;;;;;22.48;17.15;;;13.90;99.90;;;;;;5032486;28;20464;-77
2024/03/21 05:20:21;;;;;;;18.92;16.88;;;13.90;99.90;;;;;;5032290;28;20319;-77
2024/03/21 05:22:50;;;;;;;19.33;17.33;;;13.90;99.90;;;;;;5031803;28;20225;-77
2024/03/21 05:25:16;;;;;;;20.85;18.65;;;13.90;99.90;;;;;;5023245;28;20226;-77
2024/03/21 05:27:45;;;;;;;20.17;18.07;;;13.90;99.90;;;;;;5022457;28;20217;-77
2024/03/21 05:30:12;;;;;;;18.17;15.77;;;13.90;99.90;;;;;;5032827;28;20528;-77
2024/03/21 05:32:40;;;;;;;24.13;18.70;;;13.90;99.90;;;;;;5032374;28;20551;-77
2024/03/21 05:35:07;;;;;;;20.33;17.70;;;13.90;99.90;;;;;;5032349;28;20221;-77
2024/03/21 05:37:41;;;;;;;22.35;17.60;;;13.90;99.90;;;;;;5032982;28;20976;-77
2024/03/21 05:40:08;;;;;;;17.80;15.93;;;13.90;99.90;;;;;;5015646;28;20608;-77
2024/03/21 05:42:36;;;;;;;22.97;19.00;;;13.90;99.90;;;;;;5036171;28;20992;-77
2024/03/21 05:45:02;;;;;;;20.73;17.67;;;13.90;99.90;;;;;;5025906;28;20547;-77
2024/03/21 05:47:29;;;;;;;17.83;15.73;;;13.90;99.90;;;;;;5026746;28;20957;-77
2024/03/21 05:50:17;;;;;;;19.47;17.47;;;13.90;99.90;;;;;;5036776;28;20472;-77
2024/03/21 05:52:45;;;;;;;20.40;16.20;;;13.90;99.90;;;;;;5036431;28;20555;-78
2024/03/21 05:55:15;;;;;;;18.90;15.87;;;13.90;99.90;;;;;;5016951;28;20953;-77
2024/03/21 05:57:44;;;;;;;20.98;18.10;;;14.00;99.90;;;;;;5024840;28;20479;-77
2024/03/21 06:00:17;;;;;;;25.93;20.40;;;14.00;99.90;;;;;;5035507;28;20308;-77
2024/03/21 06:02:44;;;;;;;22.00;19.52;;;14.00;99.90;;;;;;5036350;28;20475;-77
2024/03/21 06:05:27;;;;;;;22.83;20.60;;;14.00;99.90;;;;;;5035669;28;20229;-76
2024/03/21 06:07:53;;;;;;;20.90;18.17;;;14.00;99.90;;;;;;5018666;28;20477;-77
2024/03/21 06:10:19;;;;;;;21.17;18.47;;;14.00;99.90;;;;;;5025059;28;20853;-77
2024/03/21 06:12:47;;;;;;;24.73;18.53;;;14.00;99.90;;;;;;5035032;28;20464;-77
2024/03/21 06:15:15;;;;;;;23.47;20.77;;;14.10;99.90;;;;;;5036062;28;20476;-77
2024/03/21 06:18:09;;;;;;;20.83;18.63;;;14.10;99.90;;;;;;5034996;28;20464;-78
2024/03/21 06:20:38;;;;;;;18.90;16.90;;;14.10;99.90;;;;;;5036164;28;20492;-77
2024/03/21 06:23:09;;;;;;;24.03;17.50;;;14.10;99.90;;;;;;5024753;28;20973;-77
2024/03/21 06:25:35;;;;;;;19.30;17.23;;;14.10;99.90;;;;;;5035753;28;20472;-78
2024/03/21 06:28:04;;;;;;;20.43;16.83;;;14.10;99.90;;;;;;5023838;28;20482;-77
2024/03/21 06:30:31;;;;;;;20.63;18.33;;;14.20;99.90;;;;;;5025189;28;20455;-77
2024/03/21 06:33:04;;;;;;;22.03;17.40;;;14.20;99.90;;;;;;5025173;28;20612;-77
2024/03/21 06:35:30;;;;;;;22.53;17.43;;;14.10;99.90;;;;;;5027155;28;20468;-77
2024/03/21 06:37:59;;;;;;;25.03;19.10;;;14.20;99.90;;;;;;5025140;28;20491;-77
2024/03/21 06:40:28;;;;;;;25.83;21.60;;;14.20;99.90;;;;;;5034924;28;20550;-77
2024/03/21 06:42:57;;;;;;;25.30;20.60;;;14.20;99.90;;;;;;5035829;28;20491;-77
2024/03/21 06:45:23;;;;;;;25.53;21.07;;;14.20;99.90;;;;;;5034423;28;20965;-77
2024/03/21 06:47:56;;;;;;;19.03;16.73;;;14.20;99.90;;;;;;5025730;28;20464;-77
2024/03/21 06:50:22;;;;;;;19.00;17.00;;;14.20;99.90;;;;;;5033401;28;20476;-77
2024/03/21 06:52:50;;;;;;;19.97;17.87;;;14.20;99.90;;;;;;5041175;28;20466;-77
2024/03/21 06:55:20;;;;;;;27.97;20.37;;;14.20;99.90;;;;;;5040240;28;20483;-77
2024/03/21 06:58:03;;;;;;;20.23;17.80;;;14.10;99.90;;;;;;5026037;28;20837;-78
2024/03/21 07:00:39;;;;;;;24.33;21.73;;;14.10;99.90;;;;;;5035562;28;20573;-77
2024/03/21 07:03:16;;;;;;;30.93;23.90;;;14.10;99.90;;;;;;5034620;28;20525;-77
2024/03/21 07:05:42;;;;;;;24.57;21.80;;;14.10;99.90;;;;;;5026450;28;20467;-77
2024/03/21 07:08:09;;;;;;;23.48;20.95;;;14.00;99.90;;;;;;5035206;28;20468;-77
2024/03/21 07:10:37;;;;;;;25.83;22.50;;;14.00;99.90;;;;;;5035187;28;20221;-77
2024/03/21 07:13:04;;;;;;;30.47;27.17;;;14.00;99.90;;;;;;5035033;28;20491;-77
2024/03/21 07:15:30;;;;;;;27.90;23.37;;;14.00;99.90;;;;;;5034480;28;20460;-77
2024/03/21 07:17:59;;;;;;;28.47;21.10;;;14.00;99.90;;;;;;5025915;28;20467;-77
2024/03/21 07:20:25;;;;;;;25.47;20.37;;;13.90;99.90;;;;;;5034282;28;20475;-77
2024/03/21 07:22:58;;;;;;;24.03;18.80;;;13.90;99.90;;;;;;5034976;28;20550;-77
2024/03/21 07:25:30;;;;;;;21.10;18.30;;;13.90;99.90;;;;;;5024384;28;20469;-77
2024/03/21 07:28:31;;;;;;;23.10;18.90;;;13.80;99.90;;;;;;5034458;28;20470;-77
2024/03/21 07:31:01;;;;;;;22.00;19.70;;;13.80;99.90;;;;;;5023953;28;20482;-77
2024/03/21 07:33:28;;;;;;;25.47;21.57;;;13.70;99.90;;;;;;5023127;28;20503;-78
2024/03/21 07:35:55;;;;;;;25.40;19.92;;;13.70;99.90;;;;;;5034816;28;20456;-78
2024/03/21 07:38:26;;;;;;;25.63;20.73;;;13.70;99.90;;;;;;5013632;28;20300;-76
2024/03/21 07:40:55;;;;;;;23.27;20.65;;;13.70;99.90;;;;;;5034207;28;20480;-76
2024/03/21 07:43:27;;;;;;;24.30;21.15;;;13.60;99.90;;;;;;5033570;28;20233;-76
2024/03/21 07:45:53;;;;;;;25.38;21.73;;;13.60;99.90;;;;;;5034339;28;20300;-76
2024/03/21 07:48:28;;;;;;;24.00;21.40;;;13.60;99.90;;;;;;5034657;28;20221;-76
2024/03/21 07:50:54;;;;;;;31.00;24.50;;;13.60;99.90;;;;;;5033998;28;20221;-76
2024/03/21 07:53:27;;;;;;;29.90;23.40;;;13.60;99.90;;;;;;5034504;28;20225;-76
2024/03/21 07:56:06;;;;;;;25.77;21.67;;;13.60;99.90;;;;;;5011196;28;20484;-76
2024/03/21 07:59:04;;;;;;;27.30;22.73;;;13.50;99.90;;;;;;5034325;28;20217;-76
2024/03/21 08:01:30;;;;;;;25.23;21.98;;;13.50;99.90;;;;;;5031399;28;20464;-76
2024/03/21 08:04:01;;;;;;;28.33;22.33;;;13.50;99.90;;;;;;5023760;28;20694;-76
2024/03/21 08:06:34;;;;;;;31.17;24.38;;;13.50;99.90;;;;;;5003932;28;20789;-76
2024/03/21 08:09:02;;;;;;;29.10;23.57;;;13.50;99.90;;;;;;5033895;28;20558;-76
2024/03/21 08:11:39;;;;;;;27.45;21.88;;;13.50;99.90;;;;;;5034386;28;20475;-77
2024/03/21 08:14:06;;;;;;;25.55;22.85;;;13.50;99.90;;;;;;5021959;28;20229;-76
2024/03/21 08:16:32;;;;;;;26.23;23.40;;;13.40;99.90;;;;;;5022759;28;20232;-76
2024/03/21 08:19:01;;;;;;;27.97;24.10;;;13.40;99.90;;;;;;5032803;28;20841;-76
2024/03/21 08:21:27;;;;;;;29.77;25.47;;;13.40;99.90;;;;;;5034275;28;20834;-76
2024/03/21 08:23:54;;;;;;;26.53;23.43;;;13.40;99.90;;;;;;5034077;28;20479;-76
2024/03/21 08:26:28;;;;;;;31.13;24.10;;;13.40;99.90;;;;;;5033287;28;20470;-76
2024/03/21 08:29:05;;;;;;;26.00;21.60;;;13.40;99.90;;;;;;5033838;28;20217;-76
2024/03/21 08:31:31;;;;;;;27.02;23.02;;;13.40;99.90;;;;;;5023283;28;20509;-76
2024/03/21 08:34:00;;;;;;;29.40;23.37;;;13.40;99.90;;;;;;5032975;28;20659;-75
2024/03/21 08:36:35;;;;;;;26.05;22.98;;;13.40;99.90;;;;;;5023129;28;21048;-76
2024/03/21 08:39:02;;;;;;;26.30;23.57;;;13.40;99.90;;;;;;5032789;28;20221;-76
2024/03/21 08:41:28;;;;;;;27.53;23.10;;;13.40;99.90;;;;;;5032985;28;20482;-76
2024/03/21 08:43:55;;;;;;;26.80;23.80;;;13.40;99.90;;;;;;5033386;28;20469;-77
2024/03/21 08:46:26;;;;;;;31.63;26.70;;;13.40;99.90;;;;;;5032842;28;20993;-76
2024/03/21 08:48:53;;;;;;;29.30;25.63;;;13.50;99.90;;;;;;5024424;28;20468;-76
2024/03/21 08:51:25;;;;;;;26.17;23.38;;;13.50;99.90;;;;;;5024136;28;20225;-76
2024/03/21 08:53:52;;;;;;;26.47;23.57;;;13.50;99.90;;;;;;5023107;28;20225;-76
2024/03/21 08:56:21;;;;;;;26.83;22.97;;;13.50;99.90;;;;;;5033249;28;20547;-76
2024/03/21 08:58:48;;;;;;;27.52;22.80;;;13.50;99.90;;;;;;5024679;28;20460;-75
2024/03/21 09:01:14;;;;;;;23.65;20.52;;;13.50;99.90;;;;;;5022961;28;20381;-75
2024/03/21 09:03:41;;;;;;;27.67;23.47;;;13.50;99.90;;;;;;5032956;28;20313;-76
2024/03/21 09:06:07;;;;;;;27.45;23.20;;;13.50;99.90;;;;;;5033344;28;20494;-75
2024/03/21 09:08:43;;;;;;;26.10;22.53;;;13.50;99.90;;;;;;5022724;28;20225;-76
2024/03/21 09:11:17;;;;;;;25.58;22.33;;;13.50;99.90;;;;;;5032958;28;20464;-76
2024/03/21 09:13:44;;;;;;;23.90;21.35;;;13.50;99.90;;;;;;5031967;28;20233;-75
2024/03/21 09:16:11;;;;;;;24.63;22.10;;;13.60;99.90;;;;;;5033148;28;20268;-75
2024/03/21 09:18:43;;;;;;;26.90;23.17;;;13.60;99.90;;;;;;5023013;28;20502;-75
2024/03/21 09:21:12;;;;;;;26.17;23.40;;;13.60;99.90;;;;;;5032463;28;20468;-75
2024/03/21 09:23:41;;;;;;;33.00;24.30;;;13.60;99.90;;;;;;5031570;28;20579;-75
2024/03/21 09:26:08;;;;;;;26.13;21.93;;;13.70;99.90;;;;;;5032878;28;20225;-75
2024/03/21 09:28:35;;;;;;;27.30;24.40;;;13.70;99.90;;;;;;5032677;28;20571;-76
2024/03/21 09:31:08;;;;;;;26.63;23.73;;;13.80;99.90;;;;;;5031741;28;20464;-76
2024/03/21 09:33:34;;;;;;;26.13;22.42;;;13.80;99.90;;;;;;5033527;28;20464;-76
2024/03/21 09:36:03;;;;;;;24.20;20.97;;;13.80;99.90;;;;;;5032925;28;20248;-77
2024/03/21 09:38:29;;;;;;;26.92;23.23;;;13.80;99.90;;;;;;5022607;28;20463;-75
2024/03/21 09:40:59;;;;;;;26.70;22.53;;;13.90;99.90;;;;;;5035234;28;20225;-75
2024/03/21 09:43:26;;;;;;;22.63;20.27;;;13.90;99.90;;;;;;5035869;28;20468;-75
2024/03/21 09:45:53;;;;;;;23.27;19.97;;;13.90;99.90;;;;;;5032363;28;20464;-76
2024/03/21 09:48:24;;;;;;;24.63;21.53;;;14.00;99.90;;;;;;5022223;28;20479;-76
2024/03/21 09:50:52;;;;;;;23.07;20.57;;;14.00;99.90;;;;;;5022413;28;20965;-75
2024/03/21 09:53:29;;;;;;;20.43;18.40;;;14.10;99.90;;;;;;5031796;28;20460;-75
2024/03/21 09:56:01;;;;;;;22.87;20.37;;;14.10;99.90;;;;;;5023054;28;20979;-76
2024/03/21 09:58:28;;;;;;;21.40;17.67;;;14.20;99.90;;;;;;5032652;28;20467;-75
2024/03/21 10:00:57;;;;;;;19.87;17.97;;;14.20;99.90;;;;;;5032526;28;20992;-75
2024/03/21 10:03:24;;;;;;;20.50;18.50;;;14.30;99.90;;;;;;5022874;28;20453;-75
2024/03/21 10:06:03;;;;;;;21.70;18.30;;;14.40;99.90;;;;;;5032634;28;20496;-74
2024/03/21 10:08:35;;;;;;;17.43;15.73;;;14.40;99.90;;;;;;5021810;28;20498;-74
2024/03/21 10:11:04;;;;;;;20.90;17.93;;;14.50;99.90;;;;;;5032410;28;20492;-75
2024/03/21 10:13:30;;;;;;;19.33;17.43;;;14.50;99.90;;;;;;5031075;28;20472;-76
2024/03/21 10:15:57;;;;;;;18.07;16.30;;;14.60;99.90;;;;;;5032596;28;20465;-76
2024/03/21 10:18:24;;;;;;;17.40;15.50;;;14.60;99.90;;;;;;5031300;28;20476;-76
2024/03/21 10:21:02;;;;;;;;;;;;;;;;;;;;;
2024/03/21 10:23:30;;;;;;;15.97;14.33;;;14.70;99.90;;;;;;5032596;28;20535;-76
2024/03/21 10:25:56;;;;;;;16.00;14.50;;;14.80;99.90;;;;;;5033026;28;20482;-76
2024/03/21 10:28:25;;;;;;;14.97;13.53;;;14.90;99.90;;;;;;5036341;28;20451;-77
2024/03/21 10:31:13;;;;;;;13.83;12.43;;;14.90;99.90;;;;;;5032217;28;20805;-77
2024/03/21 10:33:45;;;;;;;18.63;15.77;;;15.00;99.90;;;;;;5035708;28;20460;-76
2024/03/21 10:36:15;;;;;;;16.53;13.87;;;15.00;99.90;;;;;;5036027;28;20507;-76
2024/03/21 10:38:43;;;;;;;35.80;18.60;;;15.10;99.90;;;;;;5025346;28;20476;-76
2024/03/21 10:41:17;;;;;;;35.93;18.87;;;15.10;99.90;;;;;;5026464;28;20542;-77
2024/03/21 10:43:48;;;;;;;34.77;18.53;;;15.20;99.90;;;;;;5024287;28;20829;-76
2024/03/21 10:46:16;;;;;;;31.53;16.63;;;15.20;99.90;;;;;;5035550;28;20473;-76
2024/03/21 10:48:44;;;;;;;32.93;17.90;;;15.20;99.90;;;;;;5035758;28;20464;-77
2024/03/21 10:51:22;;;;;;;17.47;12.57;;;15.30;99.90;;;;;;5024792;28;20540;-76
2024/03/21 10:54:07;;;;;;;;;;;;;;;;;;;;;
2024/03/21 10:56:39;;;;;;;13.73;11.93;;;15.40;99.90;;;;;;5034567;28;20474;-76
2024/03/21 10:59:06;;;;;;;11.13;10.10;;;15.40;99.90;;;;;;5035030;28;20447;-76
2024/03/21 11:01:39;;;;;;;10.40;9.40;;;15.40;99.90;;;;;;5035735;28;20613;-76
2024/03/21 11:04:06;;;;;;;11.00;8.73;;;15.50;99.90;;;;;;5026287;28;20457;-76
2024/03/21 11:06:45;;;;;;;8.20;7.33;;;15.50;99.90;;;;;;5034957;28;20961;-76
2024/03/21 11:09:14;;;;;;;7.67;6.87;;;15.60;99.90;;;;;;5006914;28;20480;-76
2024/03/21 11:11:44;;;;;;;6.57;5.97;;;15.60;99.90;;;;;;5035699;28;20470;-76
2024/03/21 11:14:17;;;;;;;7.20;6.00;;;15.60;99.90;;;;;;5033260;28;20483;-76
2024/03/21 11:16:46;;;;;;;6.00;5.50;;;15.60;99.90;;;;;;5035414;28;20475;-76
2024/03/21 11:19:13;;;;;;;6.43;5.73;;;15.70;99.90;;;;;;5024186;28;20803;-76
2024/03/21 11:21:41;;;;;;;7.83;7.13;;;15.80;99.90;;;;;;5034244;28;20860;-76
2024/03/21 11:24:30;;;;;;;5.70;5.13;;;15.80;99.90;;;;;;5034693;28;20472;-76
2024/03/21 11:27:00;;;;;;;5.87;5.27;;;15.80;99.90;;;;;;5035140;28;20469;-76
2024/03/21 11:29:31;;;;;;;6.80;6.07;;;15.90;99.90;;;;;;5024032;28;20452;-76
2024/03/21 11:32:00;;;;;;;6.30;5.80;;;15.90;99.90;;;;;;5034786;28;20476;-76
2024/03/21 11:34:38;;;;;;;6.97;6.33;;;15.90;99.90;;;;;;5031096;28;20545;-76
2024/03/21 11:37:19;;;;;;;7.30;6.60;;;16.00;99.90;;;;;;5033084;28;20476;-76
2024/03/21 11:40:43;;;;;;;7.67;6.90;;;16.10;99.90;;;;;;5034744;28;21019;-76
2024/03/21 11:43:10;;;;;;;7.97;7.17;;;16.10;99.90;;;;;;4934317;29;20568;-76
2024/03/21 11:45:40;;;;;;;6.97;6.37;;;16.10;99.90;;;;;;5013251;28;20472;-76
2024/03/21 11:48:07;;;;;;;7.37;6.67;;;16.20;99.90;;;;;;5024179;28;20831;-76
2024/03/21 11:50:37;;;;;;;7.70;6.63;;;16.30;99.90;;;;;;5034249;28;20464;-76
2024/03/21 11:53:24;;;;;;;6.00;5.40;;;16.30;99.90;;;;;;5034095;28;20467;-76
2024/03/21 11:55:53;;;;;;;5.37;4.97;;;16.40;99.90;;;;;;5034140;28;20834;-76
2024/03/21 11:58:19;;;;;;;6.10;5.53;;;16.40;99.90;;;;;;5017720;28;20479;-76
2024/03/21 12:00:48;;;;;;;5.67;5.17;;;16.50;99.90;;;;;;5034580;28;20464;-77
2024/03/21 12:03:16;;;;;;;5.00;4.60;;;16.50;99.90;;;;;;5034307;28;20482;-76
2024/03/21 12:05:47;;;;;;;6.03;5.33;;;16.50;99.90;;;;;;5033941;28;20957;-76
2024/03/21 12:08:30;;;;;;;5.70;4.70;;;16.50;99.90;;;;;;5034438;28;20969;-76
2024/03/21 12:11:00;;;;;;;6.53;5.43;;;16.60;99.90;;;;;;5025500;28;20468;-76
2024/03/21 12:13:30;;;;;;;5.20;4.70;;;16.60;99.90;;;;;;5034573;28;20479;-76
2024/03/21 12:15:58;;;;;;;8.43;7.73;;;16.70;99.90;;;;;;5033501;28;20775;-76
2024/03/21 12:18:32;;;;;;;7.00;6.40;;;16.70;99.90;;;;;;5034347;28;20494;-76
2024/03/21 12:21:02;;;;;;;6.80;6.20;;;16.80;99.90;;;;;;5033453;28;20801;-76
2024/03/21 12:24:07;;;;;;;5.13;4.70;;;16.90;99.90;;;;;;5034076;28;20810;-76
2024/03/21 12:26:40;;;;;;;5.73;5.00;;;17.00;99.90;;;;;;5019955;28;20480;-76
2024/03/21 12:29:12;;;;;;;5.03;4.63;;;17.00;99.90;;;;;;5034708;28;20475;-76
2024/03/21 12:31:41;;;;;;;4.80;4.40;;;17.00;99.90;;;;;;5029850;28;20472;-76
2024/03/21 12:34:28;;;;;;;5.30;4.90;;;17.00;99.90;;;;;;5003516;28;20465;-76
2024/03/21 12:36:55;;;;;;;5.60;5.10;;;16.90;99.90;;;;;;5002862;28;20468;-76
2024/03/21 12:39:21;;;;;;;5.17;4.77;;;16.90;99.90;;;;;;5013110;28;20461;-76
2024/03/21 12:41:57;;;;;;;7.43;6.73;;;16.90;99.90;;;;;;5014203;28;20467;-76
2024/03/21 12:44:25;;;;;;;9.30;8.33;;;16.80;99.90;;;;;;5013223;28;20552;-76
2024/03/21 12:47:40;;;;;;;9.17;7.47;;;16.80;99.90;;;;;;5013999;28;20465;-76
2024/03/21 12:50:12;;;;;;;6.60;6.00;;;16.70;99.90;;;;;;5006070;28;20931;-76
2024/03/21 12:52:44;;;;;;;6.77;6.17;;;16.70;99.90;;;;;;5012973;28;20469;-76
2024/03/21 12:55:10;;;;;;;6.60;6.00;;;16.60;99.90;;;;;;5012767;28;20484;-76